Archival Weather

Heathrow

London, United Kingdom (EGLL)

Report from: Tuesday, June 18, 2024 12:50 AM BST
Current time: Monday, July 22, 2024 12:34 PM BST

Current weather – Weather history – Daily summaries
Weather forecast

Temperature15.0°C (59.0°F)
Dew point9.0°C (48.2°F)
Winds 4 kts (2.1 m/s, 4.6 mph) South-Southwest (210°)
Visibility6.2 mi. (10 km)
Clouds Sky clear
Altimeter29.94 in.Hg (1014 mB)
Relative humidity67 %
Density altitude138 ft. (42 m)
Remarks Fully automated report
No clouds detected
No significant changes expected in the next two hours
Flight conditions Visual Meteorological Conditions
Raw dataEGLL 172350Z AUTO 21004KT 9999 NCD 15/09 Q1014 NOSIG
An error has occurred. This application may no longer respond until reloaded. Reload 🗙